Time;durP1;ratioP1;P1;durP2;ratioP2;P2;SDS_P1;SDS_P2;PMS_P1;PMS_P2;Temp;Humidity;BMP_temperature;BMP_pressure;BME280_temperature;BME280_humidity;BME280_pressure;Samples;Min_cycle;Max_cycle;Signal;HPM_P1;HPM_P2
2023/04/02 00:01:03;;;;;;;19.15;3.65;;;;;;;15.91;47.74;100098.66;6158860;23;20100;-83
2023/04/02 00:03:41;;;;;;;20.88;4.50;;;;;;;15.67;47.51;100028.28;6214558;22;20096;-82
2023/04/02 00:06:38;;;;;;;17.85;4.70;;;;;;;15.95;47.26;100100.78;6164182;23;20100;-85
2023/04/02 00:09:12;;;;;;;16.90;4.65;;;;;;;15.84;47.69;100101.22;6158821;23;20024;-85
2023/04/02 00:11:48;;;;;;;20.17;4.50;;;;;;;15.57;47.90;100055.31;6148402;23;20526;-82
2023/04/02 00:14:34;;;;;;;16.65;4.15;;;;;;;15.80;47.87;100087.41;6177681;23;20032;-82
2023/04/02 00:17:15;;;;;;;16.08;3.58;;;;;;;15.94;47.43;100093.75;6175454;23;20120;-81
2023/04/02 00:19:49;;;;;;;21.45;5.15;;;;;;;16.07;47.22;100087.78;6191565;23;20310;-83
2023/04/02 00:22:27;;;;;;;26.50;4.88;;;;;;;15.99;47.37;100080.66;6163154;23;20020;-81
2023/04/02 00:24:56;;;;;;;15.15;4.72;;;;;;;15.69;47.52;100041.50;6187198;23;20021;-81
2023/04/02 00:27:31;;;;;;;21.33;4.28;;;;;;;15.43;47.65;100010.63;6148079;23;20214;-81
2023/04/02 00:29:58;;;;;;;14.60;4.10;;;;;;;15.23;47.95;100004.16;6166485;23;20476;-80
2023/04/02 00:32:30;;;;;;;22.75;4.28;;;;;;;15.77;48.06;100119.84;6189971;23;20017;-83
2023/04/02 00:35:01;;;;;;;20.67;4.07;;;;;;;15.51;48.22;100109.56;6182506;23;20294;-82
2023/04/02 00:37:37;;;;;;;17.67;3.92;;;;;;;15.57;49.08;100138.25;6145980;23;20487;-82
2023/04/02 00:40:18;;;;;;;18.55;4.80;;;;;;;14.90;49.78;100052.53;6184055;23;20038;-83
2023/04/02 00:42:46;;;;;;;16.77;4.30;;;;;;;15.38;49.66;100146.75;6170661;23;20435;-81
2023/04/02 00:45:29;;;;;;;21.70;5.20;;;;;;;15.12;50.16;100099.81;6189549;23;20017;-81
2023/04/02 00:48:19;;;;;;;17.80;5.07;;;;;;;15.12;51.18;100149.75;6167593;23;20021;-82
2023/04/02 00:50:51;;;;;;;16.38;4.57;;;;;;;14.76;51.83;100131.63;6176098;23;20272;-82
2023/04/02 00:53:27;;;;;;;18.90;4.47;;;;;;;14.83;51.70;100142.41;6171444;23;20047;-83
2023/04/02 00:55:57;;;;;;;20.85;5.15;;;;;;;14.82;52.18;100154.97;6179961;23;20020;-82
2023/04/02 00:58:35;;;;;;;24.17;5.18;;;;;;;14.59;52.40;100128.19;6190562;23;20100;-83
2023/04/02 01:01:06;;;;;;;12.38;4.47;;;;;;;14.76;52.48;100166.38;6180914;23;20108;-82
2023/04/02 01:03:37;;;;;;;18.30;4.70;;;;;;;14.55;52.27;100134.88;6201524;23;20338;-83
2023/04/02 01:06:11;;;;;;;22.58;5.03;;;;;;;14.62;52.37;100141.19;6156219;23;20441;-83
2023/04/02 01:09:10;;;;;;;18.80;4.90;;;;;;;14.69;52.58;100163.53;6195761;23;20048;-82
2023/04/02 01:12:07;;;;;;;14.82;4.07;;;;;;;14.62;52.99;100167.09;6149058;23;20339;-82
2023/04/02 01:15:06;;;;;;;14.30;4.50;;;;;;;14.28;53.05;100110.25;6149424;23;20442;-81
2023/04/02 01:17:59;;;;;;;19.00;4.18;;;;;;;14.69;52.55;100160.88;6153155;23;20025;-81
2023/04/02 01:21:03;;;;;;;25.67;4.78;;;;;;;14.17;52.59;100078.59;6141515;23;20021;-82
2023/04/02 01:24:00;;;;;;;21.02;4.53;;;;;;;14.54;53.00;100165.28;6160187;23;20017;-82
2023/04/02 01:26:56;;;;;;;10.63;4.03;;;;;;;14.64;52.87;100170.44;6143640;23;20385;-84
2023/04/02 01:29:39;;;;;;;18.27;4.80;;;;;;;14.51;53.10;100176.25;6157424;23;20022;-81
2023/04/02 01:32:10;;;;;;;18.75;4.05;;;;;;;14.48;52.99;100172.09;6146358;23;20757;-82
2023/04/02 01:34:39;;;;;;;25.02;4.80;;;;;;;14.25;52.92;100139.97;6150311;23;20410;-83
2023/04/02 01:37:26;;;;;;;25.30;4.57;;;;;;;14.30;53.44;100158.97;6188720;23;20018;-82
2023/04/02 01:40:05;;;;;;;23.05;4.47;;;;;;;14.45;52.48;100147.59;6142967;23;20017;-82
2023/04/02 01:43:04;;;;;;;16.23;4.55;;;;;;;14.28;52.87;100130.78;6157054;23;20128;-81
2023/04/02 01:45:33;;;;;;;19.73;4.60;;;;;;;14.28;52.94;100168.16;6135813;23;20188;-82
2023/04/02 01:48:18;;;;;;;12.52;4.65;;;;;;;14.23;52.70;100146.50;6148935;23;20024;-82
2023/04/02 01:50:51;;;;;;;17.02;4.75;;;;;;;14.21;52.66;100175.19;6196780;22;20021;-83
2023/04/02 01:53:21;;;;;;;16.58;4.68;;;;;;;14.24;52.71;100170.31;6202306;23;20468;-83
2023/04/02 01:55:51;;;;;;;16.38;4.22;;;;;;;14.38;52.26;100181.31;6150279;23;20028;-82
2023/04/02 01:58:26;;;;;;;10.90;3.78;;;;;;;14.29;52.33;100184.00;6139655;23;20203;-83
2023/04/02 02:01:11;;;;;;;13.25;4.10;;;;;;;14.42;52.02;100188.00;6158070;23;20330;-82
2023/04/02 02:03:43;;;;;;;14.50;3.88;;;;;;;14.40;52.19;100190.00;6220605;23;20467;-80
2023/04/02 02:06:15;;;;;;;14.98;4.20;;;;;;;14.41;51.85;100194.31;6152757;23;20039;-82
2023/04/02 02:08:53;;;;;;;12.93;4.78;;;;;;;14.31;52.86;100200.69;6150368;23;20459;-81
2023/04/02 02:11:23;;;;;;;13.20;3.75;;;;;;;14.16;52.58;100177.53;6174933;23;20055;-80
2023/04/02 02:14:07;;;;;;;17.30;4.65;;;;;;;14.27;52.75;100204.72;6156505;23;20024;-84
2023/04/02 02:16:40;;;;;;;12.82;4.15;;;;;;;14.12;52.81;100187.72;6176630;23;20075;-84
2023/04/02 02:19:38;;;;;;;15.23;3.67;;;;;;;14.27;52.35;100202.06;6177376;23;20418;-82
2023/04/02 02:22:29;;;;;;;14.25;4.05;;;;;;;13.94;52.15;100147.06;6158070;23;20016;-84
2023/04/02 02:25:09;;;;;;;11.75;3.83;;;;;;;14.19;52.29;100191.38;6146167;23;20424;-82
2023/04/02 02:27:59;;;;;;;14.02;3.65;;;;;;;14.21;52.44;100196.56;6177344;23;20033;-81
2023/04/02 02:30:31;;;;;;;19.60;4.50;;;;;;;14.12;52.77;100209.06;6156353;23;20341;-83
2023/04/02 02:33:20;;;;;;;15.13;4.30;;;;;;;13.70;52.88;100134.56;6160404;23;20020;-82
2023/04/02 02:36:04;;;;;;;13.52;4.28;;;;;;;14.06;52.94;100193.75;6161732;23;20331;-81
2023/04/02 02:38:45;;;;;;;15.35;4.05;;;;;;;14.19;52.59;100210.06;6149454;23;20021;-81
2023/04/02 02:41:41;;;;;;;22.42;4.68;;;;;;;14.09;52.75;100198.72;6143421;23;20025;-83
2023/04/02 02:44:13;;;;;;;14.65;4.22;;;;;;;14.12;52.83;100206.41;6162789;23;20032;-82
2023/04/02 02:46:48;;;;;;;20.77;4.32;;;;;;;14.13;52.66;100210.75;6161712;23;20088;-81
2023/04/02 02:49:39;;;;;;;23.70;4.90;;;;;;;14.06;52.77;100199.09;6152772;23;20071;-82
2023/04/02 02:52:09;;;;;;;14.38;3.90;;;;;;;14.20;52.40;100217.09;6144421;23;20339;-83
2023/04/02 02:54:40;;;;;;;19.70;4.65;;;;;;;14.18;52.92;100218.25;6153903;23;20048;-83
2023/04/02 02:57:12;;;;;;;17.50;3.78;;;;;;;14.00;52.48;100178.38;6166952;23;20642;-81
2023/04/02 02:59:41;;;;;;;16.10;5.22;;;;;;;14.00;52.42;100184.56;6177983;23;20483;-82
2023/04/02 03:02:08;;;;;;;21.27;4.65;;;;;;;14.20;52.58;100219.75;6146855;23;20021;-82
2023/04/02 03:04:52;;;;;;;19.95;4.05;;;;;;;14.25;52.46;100220.06;6151813;23;20349;-83
2023/04/02 03:07:29;;;;;;;15.00;4.22;;;;;;;14.12;52.75;100214.41;6112082;23;20025;-82
2023/04/02 03:10:11;;;;;;;15.07;4.22;;;;;;;14.19;52.94;100228.75;6118625;23;20453;-82
2023/04/02 03:13:01;;;;;;;22.75;4.40;;;;;;;13.92;52.50;100181.09;6144170;23;20568;-82
2023/04/02 03:16:20;;;;;;;20.83;4.72;;;;;;;14.10;53.36;100219.06;6130978;23;20457;-82
2023/04/02 03:18:55;;;;;;;16.23;4.68;;;;;;;14.11;52.93;100229.59;6086880;23;20072;-81
2023/04/02 03:21:53;;;;;;;20.42;4.25;;;;;;;14.16;52.99;100238.94;6137481;23;20268;-83
2023/04/02 03:25:04;;;;;;;15.57;3.70;;;;;;;14.14;52.87;100233.75;6119384;23;20024;-84
2023/04/02 03:27:40;;;;;;;10.65;3.97;;;;;;;14.11;52.71;100218.09;6080557;23;20025;-85
2023/04/02 03:30:30;;;;;;;14.85;4.15;;;;;;;14.14;53.23;100233.75;6121806;23;20017;-84
2023/04/02 03:33:05;;;;;;;19.33;4.38;;;;;;;14.01;53.38;100228.94;6122718;23;20441;-83
2023/04/02 03:36:06;;;;;;;14.85;3.78;;;;;;;14.15;53.04;100240.78;6119343;23;20099;-82
2023/04/02 03:38:50;;;;;;;18.35;4.28;;;;;;;14.00;52.91;100229.91;6122153;23;20413;-83
2023/04/02 03:41:23;;;;;;;9.88;4.03;;;;;;;14.07;53.58;100259.44;6115460;23;20096;-83
2023/04/02 03:43:57;;;;;;;18.88;4.32;;;;;;;13.99;53.05;100240.78;6113875;23;20032;-83
2023/04/02 03:46:31;;;;;;;19.13;4.90;;;;;;;14.24;52.92;100254.94;6116905;23;20067;-83
2023/04/02 03:49:28;;;;;;;14.32;4.10;;;;;;;13.95;53.18;100220.75;6146329;23;20021;-83
2023/04/02 03:52:06;;;;;;;19.65;4.55;;;;;;;14.12;52.88;100262.44;6125685;23;20028;-82
2023/04/02 03:54:36;;;;;;;23.77;4.78;;;;;;;14.06;53.08;100265.81;6122612;23;20453;-82
2023/04/02 03:57:42;;;;;;;22.90;4.55;;;;;;;14.03;53.45;100263.44;6129335;23;20194;-83
2023/04/02 04:00:36;;;;;;;19.75;4.35;;;;;;;13.89;53.67;100257.78;6133281;23;20787;-84
2023/04/02 04:03:20;;;;;;;17.60;4.45;;;;;;;13.96;53.41;100270.47;6156960;23;20021;-82
2023/04/02 04:06:00;;;;;;;20.73;4.50;;;;;;;13.48;53.86;100208.91;6120044;23;20027;-82
2023/04/02 04:08:36;;;;;;;23.45;4.78;;;;;;;13.52;54.11;100228.94;6157171;23;20044;-81
2023/04/02 04:11:12;;;;;;;15.68;3.75;;;;;;;13.71;54.97;100270.44;6117843;23;20022;-83
2023/04/02 04:13:52;;;;;;;19.60;5.13;;;;;;;13.73;54.32;100273.78;6120051;23;20027;-82
2023/04/02 04:16:31;;;;;;;17.15;4.90;;;;;;;13.46;54.27;100219.72;6110482;23;20028;-81
2023/04/02 04:19:20;;;;;;;14.07;4.72;;;;;;;13.62;54.64;100263.44;6127546;23;20021;-82
2023/04/02 04:21:47;;;;;;;13.80;4.28;;;;;;;13.40;54.87;100228.41;6129350;23;20024;-84
2023/04/02 04:24:24;;;;;;;10.93;4.47;;;;;;;13.62;55.00;100274.13;6121164;23;20616;-82
2023/04/02 04:27:02;;;;;;;20.15;4.80;;;;;;;13.51;54.91;100285.91;6141810;23;20024;-83
2023/04/02 04:29:55;;;;;;;15.60;4.43;;;;;;;13.36;55.60;100276.88;6145651;23;20029;-81
2023/04/02 04:32:37;;;;;;;21.00;4.78;;;;;;;12.98;55.85;100231.06;6131999;23;20328;-83
2023/04/02 04:35:16;;;;;;;23.67;4.80;;;;;;;13.28;56.44;100296.34;6130182;23;20096;-83
2023/04/02 04:37:58;;;;;;;14.88;4.72;;;;;;;13.30;56.31;100299.69;6120312;23;20527;-84
2023/04/02 04:40:32;;;;;;;19.75;3.78;;;;;;;13.25;56.38;100301.97;6131348;23;20337;-81
2023/04/02 04:43:05;;;;;;;20.30;5.03;;;;;;;13.11;56.23;100268.78;6122626;23;20099;-82
2023/04/02 04:45:40;;;;;;;18.20;4.63;;;;;;;13.22;56.59;100307.63;6133392;23;20013;-83
2023/04/02 04:48:30;;;;;;;15.63;4.55;;;;;;;13.07;56.77;100306.56;6146967;23;20025;-82
2023/04/02 04:51:29;;;;;;;21.08;5.35;;;;;;;13.09;57.40;100317.91;6106135;23;20088;-82
2023/04/02 04:53:56;;;;;;;21.05;4.28;;;;;;;13.24;56.62;100337.63;6113895;23;20013;-83
2023/04/02 04:56:27;;;;;;;18.40;4.47;;;;;;;13.07;56.56;100317.22;6103813;23;20039;-83
2023/04/02 04:59:16;;;;;;;18.58;4.55;;;;;;;13.19;56.98;100339.94;6114557;23;20021;-83
2023/04/02 05:02:02;;;;;;;17.85;5.13;;;;;;;12.46;57.17;100237.31;6141770;23;20495;-84
2023/04/02 05:04:35;;;;;;;25.70;5.70;;;;;;;12.98;56.76;100321.66;6152823;23;20040;-81
2023/04/02 05:07:22;;;;;;;17.20;4.70;;;;;;;13.06;57.07;100356.38;6141355;23;20032;-83
2023/04/02 05:10:28;;;;;;;21.00;4.63;;;;;;;13.03;56.74;100336.22;6155502;23;20138;-82
2023/04/02 05:13:23;;;;;;;17.75;5.20;;;;;;;12.77;56.86;100314.91;6140643;23;20345;-84
2023/04/02 05:16:20;;;;;;;21.10;5.07;;;;;;;13.07;57.17;100373.19;6133494;23;20020;-81
2023/04/02 05:19:25;;;;;;;16.25;5.00;;;;;;;12.99;57.25;100371.31;6164413;23;20044;-82
2023/04/02 05:22:26;;;;;;;21.75;5.18;;;;;;;12.88;57.59;100358.25;6127258;23;20432;-83
2023/04/02 05:25:06;;;;;;;17.73;4.55;;;;;;;12.82;56.57;100322.44;6065250;23;20033;-82
2023/04/02 05:28:06;;;;;;;21.80;5.63;;;;;;;13.12;56.84;100370.88;6175328;23;20079;-83
2023/04/02 05:30:48;;;;;;;20.90;5.75;;;;;;;13.13;56.58;100376.06;6162408;23;20634;-82
2023/04/02 05:33:28;;;;;;;13.13;5.13;;;;;;;13.17;56.45;100380.06;6160056;23;20138;-81
2023/04/02 05:36:28;;;;;;;24.85;5.75;;;;;;;13.10;56.51;100391.53;6177705;23;20021;-83
2023/04/02 05:38:59;;;;;;;16.08;4.97;;;;;;;12.08;57.03;100226.09;6145728;23;20025;-85
2023/04/02 05:41:48;;;;;;;20.73;5.55;;;;;;;12.10;56.93;100233.94;6153538;23;20483;-82
2023/04/02 05:44:23;;;;;;;11.38;4.75;;;;;;;12.88;57.42;100395.53;6161426;23;20021;-82
2023/04/02 05:47:17;;;;;;;12.02;5.03;;;;;;;12.92;57.96;100387.09;6146753;23;20099;-80
2023/04/02 05:49:54;;;;;;;23.00;6.35;;;;;;;11.56;57.86;100191.41;6150596;23;20025;-81
2023/04/02 05:52:32;;;;;;;14.73;5.43;;;;;;;12.66;58.43;100376.41;6164863;23;20023;-83
2023/04/02 05:55:22;;;;;;;20.88;6.15;;;;;;;12.75;58.70;100395.97;6152589;23;20024;-84
2023/04/02 05:57:55;;;;;;;22.83;6.10;;;;;;;11.29;58.23;100149.81;6159868;23;20024;-79
2023/04/02 06:01:16;;;;;;;31.00;7.38;;;;;;;12.68;59.16;100400.25;6157432;23;20288;-82
2023/04/02 06:04:04;;;;;;;15.73;6.03;;;;;;;12.56;59.28;100365.84;6120012;23;20053;-83
2023/04/02 06:06:40;;;;;;;16.38;5.47;;;;;;;12.86;58.41;100397.53;6157157;23;20434;-82
2023/04/02 06:09:26;;;;;;;15.52;6.03;;;;;;;12.35;58.42;100302.28;6157242;23;20422;-82
2023/04/02 06:12:13;;;;;;;12.88;5.97;;;;;;;11.64;58.16;100182.66;6155533;23;20023;-83
2023/04/02 06:14:40;;;;;;;25.63;6.85;;;;;;;12.87;58.06;100389.38;6151120;23;20025;-83
2023/04/02 06:17:16;;;;;;;17.25;6.35;;;;;;;12.83;58.12;100394.19;6123939;23;20104;-82
2023/04/02 06:19:47;;;;;;;18.95;6.38;;;;;;;12.90;58.29;100418.38;6152212;23;20070;-81
2023/04/02 06:22:39;;;;;;;22.63;6.57;;;;;;;11.72;58.53;100230.59;6136284;23;20518;-82
2023/04/02 06:25:12;;;;;;;20.90;6.75;;;;;;;12.05;57.90;100265.50;6129720;23;20017;-82
2023/04/02 06:27:45;;;;;;;15.88;6.03;;;;;;;11.81;57.90;100226.19;6135725;23;20017;-83
2023/04/02 06:30:30;;;;;;;16.00;6.40;;;;;;;12.42;58.91;100352.28;6131606;23;20096;-81
2023/04/02 06:32:57;;;;;;;18.38;6.40;;;;;;;12.37;58.28;100329.59;6152164;23;20031;-82
2023/04/02 06:35:27;;;;;;;17.27;6.32;;;;;;;12.92;58.49;100421.72;6138945;23;20064;-84
2023/04/02 06:38:03;;;;;;;17.65;6.25;;;;;;;12.49;58.66;100354.16;6123271;23;20170;-82
2023/04/02 06:40:32;;;;;;;18.40;6.45;;;;;;;12.58;58.86;100387.84;6122657;23;20039;-80
2023/04/02 06:43:08;;;;;;;29.30;6.78;;;;;;;12.39;59.12;100369.38;6146983;23;20646;-84
2023/04/02 06:45:56;;;;;;;18.60;6.30;;;;;;;12.44;59.91;100385.72;6119925;23;20021;-82
2023/04/02 06:48:32;;;;;;;23.30;6.18;;;;;;;12.52;61.19;100406.25;6129857;23;20064;-84
2023/04/02 06:51:15;;;;;;;15.15;6.28;;;;;;;11.98;61.23;100329.09;6119897;23;20036;-83
2023/04/02 06:53:48;;;;;;;20.10;7.33;;;;;;;11.87;60.89;100313.38;6129846;23;20092;-85
2023/04/02 06:56:44;;;;;;;15.73;6.63;;;;;;;12.94;60.60;100505.00;6117561;23;20760;-84
2023/04/02 06:59:11;;;;;;;16.00;7.13;;;;;;;11.59;60.22;100284.16;6125136;23;20033;-84
2023/04/02 07:02:05;;;;;;;14.48;6.10;;;;;;;12.28;60.76;100409.53;6122450;23;20091;-85
2023/04/02 07:04:32;;;;;;;17.50;6.88;;;;;;;12.73;60.93;100489.34;6182956;23;20100;-83
2023/04/02 07:06:59;;;;;;;22.17;8.38;;;;;;;11.82;59.56;100299.66;6153009;23;20340;-84
2023/04/02 07:09:28;;;;;;;20.83;7.35;;;;;;;12.85;59.90;100500.59;6142265;23;20016;-80
2023/04/02 07:11:55;;;;;;;19.38;8.27;;;;;;;11.48;60.43;100287.00;6143048;23;20023;-81
2023/04/02 07:14:22;;;;;;;19.98;9.13;;;;;;;12.66;60.65;100482.13;6155979;23;20404;-82
2023/04/02 07:16:51;;;;;;;27.95;10.77;;;;;;;12.05;60.91;100396.69;6151436;23;20042;-82
2023/04/02 07:19:30;;;;;;;25.17;11.68;;;;;;;13.08;61.43;100530.25;6165416;23;20386;-81
2023/04/02 07:22:02;;;;;;;28.40;12.95;;;;;;;13.01;62.13;100543.38;6173165;23;20021;-82
2023/04/02 07:24:33;;;;;;;24.80;11.60;;;;;;;11.55;60.58;100285.44;6154642;23;20100;-81
2023/04/02 07:27:00;;;;;;;27.90;11.98;;;;;;;12.82;61.48;100509.72;6154053;23;20196;-83
2023/04/02 07:29:27;;;;;;;26.17;12.88;;;;;;;11.89;61.14;100359.28;6146091;23;20074;-83
2023/04/02 07:31:54;;;;;;;22.77;13.02;;;;;;;12.52;61.53;100460.34;6159403;23;20025;-82
2023/04/02 07:34:27;;;;;;;28.77;14.10;;;;;;;13.12;61.11;100552.13;6153134;23;20016;-82
2023/04/02 07:36:56;;;;;;;43.95;15.63;;;;;;;13.18;61.35;100578.13;6137931;23;20025;-82
2023/04/02 07:39:32;;;;;;;37.92;14.80;;;;;;;13.00;61.91;100543.50;6147484;23;20074;-83
2023/04/02 07:42:08;;;;;;;29.83;14.57;;;;;;;13.23;61.75;100575.88;6159176;23;20020;-82
2023/04/02 07:44:39;;;;;;;32.22;15.88;;;;;;;13.02;61.94;100552.19;6172875;23;20060;-82
2023/04/02 07:47:09;;;;;;;37.33;18.02;;;;;;;13.08;62.65;100572.06;6178583;23;20028;-81
2023/04/02 07:49:36;;;;;;;27.95;16.92;;;;;;;13.19;62.85;100579.81;6147011;23;20016;-81
2023/04/02 07:52:05;;;;;;;40.55;17.80;;;;;;;12.37;62.58;100451.22;6158269;23;20027;-83
2023/04/02 07:54:32;;;;;;;41.28;18.63;;;;;;;13.08;63.12;100564.06;6156714;23;20020;-81
2023/04/02 07:56:59;;;;;;;44.63;19.42;;;;;;;13.38;63.16;100600.19;6159892;23;20024;-81
2023/04/02 07:59:26;;;;;;;44.00;22.50;;;;;;;13.48;63.36;100598.25;6160090;23;20468;-81
2023/04/02 08:01:53;;;;;;;46.30;20.50;;;;;;;13.42;63.72;100585.53;6149316;23;20044;-82
2023/04/02 08:04:21;;;;;;;49.20;23.35;;;;;;;13.64;63.68;100609.03;6151335;23;20169;-83
2023/04/02 08:06:51;;;;;;;53.17;25.38;;;;;;;13.41;63.49;100576.69;6148232;23;20677;-81
2023/04/02 08:09:25;;;;;;;45.05;24.77;;;;;;;13.65;64.09;100613.38;6139672;23;20021;-82
2023/04/02 08:11:55;;;;;;;58.63;27.15;;;;;;;13.71;64.60;100633.25;6159104;23;20023;-79
2023/04/02 08:14:22;;;;;;;50.95;26.73;;;;;;;13.74;64.54;100627.63;6185664;23;20527;-80
2023/04/02 08:16:51;;;;;;;55.10;28.30;;;;;;;13.78;64.67;100634.28;6140164;23;20021;-80
2023/04/02 08:19:24;;;;;;;61.78;31.60;;;;;;;12.96;64.74;100499.50;6150558;23;20020;-81
2023/04/02 08:21:59;;;;;;;57.90;31.17;;;;;;;13.28;65.31;100557.63;6145108;23;20452;-83
2023/04/02 08:24:26;;;;;;;61.83;31.30;;;;;;;13.55;65.92;100622.47;6190773;23;20519;-82
2023/04/02 08:26:53;;;;;;;68.30;33.78;;;;;;;13.68;66.71;100644.22;6152013;23;20486;-82
2023/04/02 08:29:32;;;;;;;74.03;35.28;;;;;;;13.72;67.93;100650.94;6143008;23;20491;-81
2023/04/02 08:32:00;;;;;;;71.47;38.15;;;;;;;13.53;68.96;100625.28;6178551;23;20119;-82
2023/04/02 08:34:28;;;;;;;71.85;39.13;;;;;;;13.67;70.88;100655.91;6155577;23;20027;-83
2023/04/02 08:37:02;;;;;;;77.03;37.90;;;;;;;13.61;70.68;100640.50;6184499;23;20071;-83
2023/04/02 08:39:31;;;;;;;70.13;38.33;;;;;;;13.65;70.52;100649.88;6157926;23;20017;-81
2023/04/02 08:42:13;;;;;;;76.45;38.80;;;;;;;13.68;71.35;100660.25;6167507;23;20410;-81
2023/04/02 08:45:23;;;;;;;77.28;40.03;;;;;;;13.67;71.93;100666.59;6152192;23;20079;-84
2023/04/02 08:47:56;;;;;;;71.78;39.42;;;;;;;13.67;72.77;100658.59;6121841;23;20020;-81
2023/04/02 08:50:33;;;;;;;72.43;40.13;;;;;;;13.64;73.53;100658.88;6135391;23;20021;-81
2023/04/02 08:53:08;;;;;;;81.45;42.10;;;;;;;13.66;74.53;100664.88;6164679;23;20016;-82
2023/04/02 08:56:04;;;;;;;81.78;44.53;;;;;;;13.83;73.53;100666.69;6151611;23;20020;-80
2023/04/02 08:59:01;;;;;;;90.97;45.77;;;;;;;13.82;72.81;100667.69;6151959;23;20163;-83
2023/04/02 09:01:50;;;;;;;81.22;43.35;;;;;;;13.73;73.31;100662.44;6153045;23;20283;-83
2023/04/02 09:04:23;;;;;;;87.97;46.20;;;;;;;13.62;74.22;100635.03;6180478;23;20512;-84
2023/04/02 09:06:56;;;;;;;97.68;51.20;;;;;;;13.95;74.74;100672.59;6168505;23;20242;-83
2023/04/02 09:09:37;;;;;;;90.55;49.90;;;;;;;13.73;76.27;100633.94;6169173;23;20020;-81
2023/04/02 09:12:19;;;;;;;104.75;50.75;;;;;;;14.19;75.84;100679.94;6152699;23;20289;-83
2023/04/02 09:15:17;;;;;;;99.63;52.10;;;;;;;14.38;75.85;100680.72;6184423;23;20027;-83
2023/04/02 09:17:44;;;;;;;106.03;53.55;;;;;;;14.39;74.69;100644.97;6158979;23;20048;-82
2023/04/02 09:20:29;;;;;;;108.32;55.28;;;;;;;14.50;75.83;100655.38;6150703;23;20059;-83
2023/04/02 09:23:24;;;;;;;125.30;57.05;;;;;;;14.52;75.19;100653.41;6165502;23;20035;-83
2023/04/02 09:26:00;;;;;;;134.27;61.42;;;;;;;14.77;74.31;100682.91;6156766;23;20679;-82
2023/04/02 09:28:33;;;;;;;130.18;63.17;;;;;;;14.61;73.56;100647.13;6185165;23;20255;-81
2023/04/02 09:31:30;;;;;;;132.52;64.00;;;;;;;14.63;73.40;100666.47;6162121;23;20031;-80
2023/04/02 09:34:03;;;;;;;127.25;62.05;;;;;;;14.81;73.60;100698.47;6156915;23;20031;-82
2023/04/02 09:36:43;;;;;;;136.45;64.47;;;;;;;14.78;74.20;100689.91;6176021;23;20028;-83
2023/04/02 09:39:27;;;;;;;132.02;66.10;;;;;;;14.62;73.28;100662.16;6158513;23;20464;-82
2023/04/02 09:41:55;;;;;;;128.80;63.75;;;;;;;14.87;73.03;100703.16;6167278;23;20020;-80
2023/04/02 09:44:32;;;;;;;132.38;66.18;;;;;;;14.87;72.92;100713.84;6155936;23;20040;-82
2023/04/02 09:47:23;;;;;;;127.80;64.63;;;;;;;14.88;72.97;100693.28;6180693;23;20024;-81
2023/04/02 09:49:50;;;;;;;114.07;60.50;;;;;;;14.93;71.16;100661.59;6192612;23;20027;-81
2023/04/02 09:52:28;;;;;;;120.40;58.63;;;;;;;15.05;70.66;100654.06;6167436;23;20027;-82
2023/04/02 09:55:27;;;;;;;110.00;55.45;;;;;;;15.48;69.75;100703.78;6180357;23;20425;-82
2023/04/02 09:58:10;;;;;;;104.82;54.25;;;;;;;15.51;69.78;100700.78;6132036;23;20017;-82
2023/04/02 10:00:56;;;;;;;113.13;54.47;;;;;;;15.49;68.90;100710.00;6119236;23;20020;-81
2023/04/02 10:03:28;;;;;;;97.82;52.45;;;;;;;15.52;68.08;100710.47;6160235;23;20025;-82
2023/04/02 10:06:09;;;;;;;92.78;47.53;;;;;;;15.56;65.99;100727.88;6160736;23;20028;-82
2023/04/02 10:08:39;;;;;;;79.68;41.42;;;;;;;15.58;64.72;100720.53;6148647;23;20028;-82
2023/04/02 10:11:30;;;;;;;81.78;43.33;;;;;;;15.22;63.68;100641.56;6148666;23;20450;-82
2023/04/02 10:14:36;;;;;;;84.15;42.63;;;;;;;15.33;65.63;100694.75;6152465;23;20091;-81
2023/04/02 10:17:13;;;;;;;83.53;41.60;;;;;;;15.60;64.94;100713.16;6147362;23;20361;-81
2023/04/02 10:20:10;;;;;;;81.43;41.67;;;;;;;15.65;63.85;100695.75;6154024;23;20029;-80
2023/04/02 10:22:38;;;;;;;79.38;41.80;;;;;;;15.57;64.75;100691.25;6140402;23;20017;-81
2023/04/02 10:25:13;;;;;;;72.60;40.25;;;;;;;15.98;63.82;100724.22;6193731;23;20029;-79
2023/04/02 10:28:10;;;;;;;64.28;31.20;;;;;;;15.94;60.98;100714.03;6194771;23;20028;-81
2023/04/02 10:30:59;;;;;;;68.57;33.50;;;;;;;15.92;61.58;100690.13;6144309;23;20017;-81
2023/04/02 10:33:32;;;;;;;89.50;42.75;;;;;;;16.20;61.91;100713.81;6151829;23;20076;-81
2023/04/02 10:36:21;;;;;;;73.70;39.63;;;;;;;16.22;62.37;100723.34;6160939;23;20024;-81
2023/04/02 10:38:54;;;;;;;71.45;38.00;;;;;;;16.24;61.30;100726.72;6152965;23;20271;-84
2023/04/02 10:41:33;;;;;;;65.05;34.28;;;;;;;16.21;60.71;100721.69;6157044;23;20036;-82
2023/04/02 10:44:08;;;;;;;67.70;36.13;;;;;;;16.09;61.20;100711.50;6167453;23;20092;-81
2023/04/02 10:47:21;;;;;;;60.47;31.55;;;;;;;16.05;61.19;100721.72;6160395;23;20103;-82
2023/04/02 10:50:05;;;;;;;57.50;31.58;;;;;;;16.00;61.33;100708.84;6142292;23;20051;-83
2023/04/02 10:52:43;;;;;;;50.72;29.23;;;;;;;16.06;59.92;100718.03;6150353;23;20032;-84
2023/04/02 10:55:22;;;;;;;63.53;30.73;;;;;;;16.00;60.07;100713.34;6158895;23;20016;-82
2023/04/02 10:57:57;;;;;;;56.30;28.08;;;;;;;16.05;59.42;100705.66;6163425;23;20087;-83
2023/04/02 11:00:27;;;;;;;49.78;27.40;;;;;;;15.88;60.02;100693.28;6161566;23;20020;-84
2023/04/02 11:03:04;;;;;;;44.28;25.23;;;;;;;15.85;59.11;100667.69;6192208;23;20236;-84
2023/04/02 11:05:42;;;;;;;47.17;26.00;;;;;;;15.86;58.83;100666.69;6130319;23;20029;-84
2023/04/02 11:08:15;;;;;;;53.38;27.25;;;;;;;15.55;59.95;100629.03;6157064;23;20181;-83
2023/04/02 11:11:06;;;;;;;58.80;28.05;;;;;;;15.96;59.75;100686.06;6138325;23;20025;-82
2023/04/02 11:14:04;;;;;;;55.83;27.52;;;;;;;15.89;60.00;100685.06;6120272;23;20025;-83
2023/04/02 11:16:32;;;;;;;55.63;30.15;;;;;;;15.89;59.78;100693.09;6135122;23;20035;-83
2023/04/02 11:19:17;;;;;;;49.25;27.67;;;;;;;15.96;59.71;100696.78;6116649;23;20025;-81
2023/04/02 11:22:03;;;;;;;52.47;27.17;;;;;;;15.79;60.04;100695.13;6135241;23;20060;-83
2023/04/02 11:24:59;;;;;;;52.92;26.95;;;;;;;15.65;60.40;100683.22;6136880;23;20021;-84
2023/04/02 11:27:32;;;;;;;51.17;28.35;;;;;;;15.71;60.61;100687.94;6163256;23;20020;-82
2023/04/02 11:30:25;;;;;;;60.17;30.23;;;;;;;15.65;61.51;100687.72;6123689;23;20024;-83
2023/04/02 11:32:53;;;;;;;52.00;28.30;;;;;;;15.45;61.53;100672.00;6134278;23;20472;-81
2023/04/02 11:35:26;;;;;;;52.10;28.00;;;;;;;15.49;62.71;100705.47;6125572;23;20025;-83
2023/04/02 11:37:56;;;;;;;52.17;29.23;;;;;;;14.99;63.04;100633.34;6149367;23;20017;-83
2023/04/02 11:40:48;;;;;;;54.55;29.50;;;;;;;15.10;64.44;100652.59;6121814;23;20028;-82
2023/04/02 11:43:32;;;;;;;51.92;25.48;;;;;;;15.06;63.03;100640.53;6148604;23;20083;-84
2023/04/02 11:46:27;;;;;;;46.33;25.40;;;;;;;15.54;62.67;100695.09;6114893;23;20667;-83
2023/04/02 11:49:35;;;;;;;40.72;21.48;;;;;;;15.60;62.41;100685.56;6119082;23;20025;-83
2023/04/02 11:52:23;;;;;;;37.78;19.45;;;;;;;15.54;62.35;100680.88;6113683;23;20029;-84
2023/04/02 11:55:05;;;;;;;36.95;19.35;;;;;;;15.41;63.39;100692.06;6122759;23;20453;-84
2023/04/02 11:57:59;;;;;;;32.45;19.23;;;;;;;15.33;64.27;100689.38;6113797;23;20532;-83
2023/04/02 12:00:46;;;;;;;36.55;19.25;;;;;;;15.28;65.05;100687.22;6126668;23;20021;-84
2023/04/02 12:03:17;;;;;;;37.28;19.05;;;;;;;15.02;63.53;100633.03;6128440;23;20021;-84
2023/04/02 12:05:57;;;;;;;40.67;20.92;;;;;;;15.27;64.93;100700.75;6119260;23;20091;-84
2023/04/02 12:08:50;;;;;;;39.28;21.75;;;;;;;15.15;65.18;100682.34;6101762;23;20602;-83
2023/04/02 12:11:41;;;;;;;46.78;23.55;;;;;;;15.09;66.56;100692.84;6105801;23;20021;-84
2023/04/02 12:14:29;;;;;;;39.67;23.15;;;;;;;15.26;66.06;100715.13;6091714;23;20025;-83